Time;durP1;ratioP1;P1;durP2;ratioP2;P2;SDS_P1;SDS_P2;PMS_P1;PMS_P2;Temp;Humidity;BMP_temperature;BMP_pressure;BME280_temperature;BME280_humidity;BME280_pressure;Samples;Min_cycle;Max_cycle;Signal;HPM_P1;HPM_P2
2023/03/23 00:02:05;;;;;;;40.40;22.30;;;;;;;8.32;89.67;96372.28;5093394;28;20048;-61
2023/03/23 00:04:32;;;;;;;32.75;21.08;;;;;;;8.29;89.62;96368.91;5093437;28;20048;-61
2023/03/23 00:07:02;;;;;;;42.47;23.25;;;;;;;8.31;89.80;96373.19;5092628;28;20084;-61
2023/03/23 00:09:34;;;;;;;39.45;23.75;;;;;;;8.31;89.54;96365.34;5093232;28;20040;-61
2023/03/23 00:12:05;;;;;;;38.60;23.58;;;;;;;8.26;89.70;96369.88;5093127;28;20409;-61
2023/03/23 00:14:40;;;;;;;45.58;23.13;;;;;;;8.31;89.64;96367.13;5093152;28;20044;-61
2023/03/23 00:17:09;;;;;;;39.15;23.58;;;;;;;8.25;89.90;96365.53;5093354;28;20052;-61
2023/03/23 00:19:45;;;;;;;40.33;23.65;;;;;;;8.27;89.88;96366.34;5093081;28;20052;-60
2023/03/23 00:22:16;;;;;;;36.72;24.42;;;;;;;8.22;89.72;96357.84;5092973;28;20083;-61
2023/03/23 00:24:44;;;;;;;43.20;26.02;;;;;;;8.27;89.68;96361.16;5092908;28;20044;-61
2023/03/23 00:27:12;;;;;;;39.67;24.95;;;;;;;8.30;89.38;96358.44;5093016;28;20048;-60
2023/03/23 00:29:40;;;;;;;49.65;24.90;;;;;;;8.30;89.25;96358.44;5092977;28;20483;-61
2023/03/23 00:32:12;;;;;;;48.75;27.77;;;;;;;8.26;89.55;96354.25;5093023;28;20079;-61
2023/03/23 00:34:40;;;;;;;47.85;26.25;;;;;;;8.28;89.69;96354.19;5093080;28;20044;-62
2023/03/23 00:37:08;;;;;;;64.72;28.15;;;;;;;8.25;89.51;96347.31;5092914;28;20044;-61
2023/03/23 00:39:38;;;;;;;49.95;26.40;;;;;;;8.16;89.60;96351.06;5093090;28;20048;-61
2023/03/23 00:42:05;;;;;;;;;;;;;;;8.13;89.75;96347.72;5093122;28;20054;-61
2023/03/23 00:44:35;;;;;;;47.47;26.52;;;;;;;8.07;89.79;96346.97;5092875;28;19924;-62
2023/03/23 00:47:03;;;;;;;58.88;28.35;;;;;;;8.08;89.76;96346.09;5092725;28;20087;-61
2023/03/23 00:49:34;;;;;;;52.15;27.63;;;;;;;8.11;89.80;96344.28;5092699;28;20101;-64
2023/03/23 00:52:02;;;;;;;50.28;25.58;;;;;;;8.17;89.44;96346.69;5092877;28;20478;-61
2023/03/23 00:54:30;;;;;;;49.28;28.08;;;;;;;8.17;89.53;96344.09;5092653;28;20052;-61
2023/03/23 00:56:59;;;;;;;52.67;28.25;;;;;;;8.22;89.55;96337.00;5092645;28;20490;-61
2023/03/23 00:59:26;;;;;;;49.15;26.50;;;;;;;8.25;89.36;96336.03;5092740;28;20044;-61
2023/03/23 01:01:53;;;;;;;51.53;26.98;;;;;;;8.29;89.33;96342.84;5092630;28;20464;-62
2023/03/23 01:04:21;;;;;;;47.03;26.13;;;;;;;8.32;88.83;96346.22;5092401;28;20044;-62
2023/03/23 01:06:51;;;;;;;54.25;29.60;;;;;;;8.30;88.88;96342.81;5092568;28;20044;-62
2023/03/23 01:09:20;;;;;;;49.80;26.65;;;;;;;8.28;89.00;96341.16;5092660;28;20487;-62
2023/03/23 01:11:49;;;;;;;47.95;25.60;;;;;;;8.28;89.20;96343.78;5092514;28;20097;-62
2023/03/23 01:14:20;;;;;;;63.72;27.02;;;;;;;8.24;89.42;96344.78;5092418;28;20135;-62
2023/03/23 01:16:47;;;;;;;63.92;27.40;;;;;;;8.22;89.39;96339.59;5092552;28;20052;-61
2023/03/23 01:19:17;;;;;;;48.30;25.85;;;;;;;8.18;89.36;96341.44;5094034;28;20063;-62
2023/03/23 01:21:44;;;;;;;423.10;32.65;;;;;;;8.13;89.61;96338.13;5096031;28;20048;-61
2023/03/23 01:24:11;;;;;;;109.80;28.15;;;;;;;8.11;90.37;96342.53;5095876;28;20125;-62
2023/03/23 01:26:40;;;;;;;59.72;25.92;;;;;;;8.14;90.04;96342.44;5096016;28;20044;-61
2023/03/23 01:29:07;;;;;;;99.70;26.65;;;;;;;8.12;90.41;96339.03;5095881;28;20378;-62
2023/03/23 01:31:37;;;;;;;60.08;25.40;;;;;;;8.15;90.40;96338.06;5096021;28;20101;-61
2023/03/23 01:34:05;;;;;;;108.80;27.17;;;;;;;8.17;90.59;96341.50;5096098;28;20059;-62
2023/03/23 01:36:33;;;;;;;83.50;25.77;;;;;;;8.13;90.53;96340.72;5095855;28;20047;-62
2023/03/23 01:39:03;;;;;;;125.78;26.33;;;;;;;8.12;90.71;96339.03;5095754;28;20040;-62
2023/03/23 01:41:31;;;;;;;45.25;24.70;;;;;;;8.08;90.76;96340.91;5095817;28;20573;-61
2023/03/23 01:44:03;;;;;;;55.65;25.10;;;;;;;8.08;90.58;96338.28;5095727;28;20429;-61
2023/03/23 01:46:31;;;;;;;44.95;24.52;;;;;;;8.06;90.53;96334.88;5095891;28;20078;-62
2023/03/23 01:49:08;;;;;;;61.63;25.30;;;;;;;8.10;90.79;96338.25;5095708;28;20054;-62
2023/03/23 01:51:38;;;;;;;58.30;26.23;;;;;;;8.09;90.71;96339.13;5095279;28;20051;-61
2023/03/23 01:54:09;;;;;;;46.92;24.77;;;;;;;8.08;90.93;96340.03;5095595;28;20074;-61
2023/03/23 01:56:41;;;;;;;;;;;;;;;8.10;90.59;96330.44;5095772;28;20048;-61
2023/03/23 01:59:10;;;;;;;47.50;24.17;;;;;;;8.07;90.82;96336.56;5095310;28;19978;-62
2023/03/23 02:01:42;;;;;;;41.47;22.92;;;;;;;8.08;90.72;96340.91;5095365;28;20044;-62
2023/03/23 02:04:13;;;;;;;43.63;22.15;;;;;;;8.05;90.93;96341.00;5095135;28;20044;-61
2023/03/23 02:06:40;;;;;;;43.10;23.45;;;;;;;8.04;90.99;96348.84;5095286;28;20114;-62
2023/03/23 02:09:07;;;;;;;39.60;22.50;;;;;;;8.09;90.91;96342.59;5095302;28;20044;-61
2023/03/23 02:11:35;;;;;;;37.90;21.08;;;;;;;8.15;90.40;96343.28;5095118;28;20097;-61
2023/03/23 02:14:03;;;;;;;36.67;21.08;;;;;;;8.14;90.26;96341.59;5095072;28;20066;-61
2023/03/23 02:16:39;;;;;;;40.22;21.83;;;;;;;8.09;90.28;96342.59;5095030;28;20444;-62
2023/03/23 02:19:42;;;;;;;36.78;20.42;;;;;;;8.09;90.10;96339.13;5095033;28;20481;-62
2023/03/23 02:22:42;;;;;;;35.85;20.45;;;;;;;8.12;89.88;96341.63;5091631;28;21177;-62
2023/03/23 02:25:39;;;;;;;26.60;14.70;;;;;;;8.09;89.69;96337.38;5078107;28;20044;-61
2023/03/23 02:28:48;;;;;;;31.27;19.08;;;;;;;8.12;89.27;96341.63;5094672;28;20413;-62
2023/03/23 02:31:41;;;;;;;28.58;17.60;;;;;;;8.09;89.00;96337.38;5094515;28;20044;-61
2023/03/23 02:34:14;;;;;;;35.47;20.20;;;;;;;8.04;89.45;96341.88;5094672;28;20048;-61
2023/03/23 02:36:46;;;;;;;31.60;19.45;;;;;;;8.06;89.34;96340.06;5094919;28;20837;-62
2023/03/23 02:39:19;;;;;;;42.75;18.10;;;;;;;8.04;89.42;96344.47;5094544;28;20119;-61
2023/03/23 02:41:51;;;;;;;46.40;20.52;;;;;;;8.08;89.39;96343.50;5094557;28;20052;-61
2023/03/23 02:44:19;;;;;;;42.30;20.38;;;;;;;8.09;89.41;96350.41;5094379;28;20105;-61
2023/03/23 02:46:47;;;;;;;39.92;20.13;;;;;;;8.06;89.44;96349.63;5094306;28;20044;-61
2023/03/23 02:49:18;;;;;;;36.97;21.08;;;;;;;8.04;89.59;96356.66;5094371;28;20079;-61
2023/03/23 02:51:49;;;;;;;36.40;18.95;;;;;;;8.00;89.99;96362.88;5094097;28;20134;-62
2023/03/23 02:54:18;;;;;;;38.60;20.92;;;;;;;8.01;90.42;96360.19;5094253;28;20044;-61
2023/03/23 02:56:46;;;;;;;71.28;19.52;;;;;;;8.03;90.04;96358.41;5094279;28;20072;-61
2023/03/23 02:59:14;;;;;;;40.97;20.50;;;;;;;8.07;90.24;96361.78;5094154;28;20799;-60
2023/03/23 03:01:53;;;;;;;183.57;22.42;;;;;;;8.07;90.20;96364.38;5094109;28;20383;-61
2023/03/23 03:04:25;;;;;;;194.60;21.83;;;;;;;8.09;90.26;96363.44;5094013;28;20052;-61
2023/03/23 03:07:03;;;;;;;37.13;19.50;;;;;;;8.08;90.21;96366.94;5093969;28;20047;-61
2023/03/23 03:09:39;;;;;;;200.55;21.27;;;;;;;8.08;90.31;96369.56;5093862;28;20127;-61
2023/03/23 03:12:12;;;;;;;233.07;20.80;;;;;;;8.12;90.06;96372.06;5093808;28;20048;-61
2023/03/23 03:14:46;;;;;;;326.50;25.95;;;;;;;8.12;89.87;96369.47;5093897;28;20127;-61
2023/03/23 03:17:21;;;;;;;579.30;32.13;;;;;;;8.04;89.82;96370.53;5094159;28;20127;-61
2023/03/23 03:19:54;;;;;;;289.15;23.75;;;;;;;8.04;89.99;96378.34;5093743;28;20135;-61
2023/03/23 03:22:22;;;;;;;113.75;21.85;;;;;;;8.00;90.23;96381.94;5093913;28;20130;-61
2023/03/23 03:24:51;;;;;;;95.38;21.33;;;;;;;7.91;90.34;96377.00;5093755;28;20052;-61
2023/03/23 03:27:22;;;;;;;75.22;22.45;;;;;;;7.87;90.77;96375.41;5093828;28;20044;-62
2023/03/23 03:29:54;;;;;;;48.58;21.17;;;;;;;7.83;90.82;96370.28;5093717;28;20453;-61
2023/03/23 03:32:30;;;;;;;43.92;19.58;;;;;;;7.81;91.12;96374.69;5093708;28;20052;-61
2023/03/23 03:35:00;;;;;;;41.47;20.85;;;;;;;7.78;91.58;96371.31;5093627;28;20106;-61
2023/03/23 03:37:28;;;;;;;40.63;21.63;;;;;;;7.81;91.70;96372.09;5093662;28;20123;-61
2023/03/23 03:39:55;;;;;;;33.05;19.30;;;;;;;7.78;91.73;96376.53;5093480;28;20101;-61
2023/03/23 03:42:22;;;;;;;27.38;15.85;;;;;;;7.81;91.71;96377.28;5092633;28;20040;-61
2023/03/23 03:44:49;;;;;;;27.60;17.00;;;;;;;7.80;91.50;96375.56;5093441;28;20048;-61
2023/03/23 03:47:16;;;;;;;19.23;13.10;;;;;;;7.83;91.51;96375.47;5093420;28;20047;-61
2023/03/23 03:49:46;;;;;;;18.08;13.13;;;;;;;7.87;91.61;96378.88;5093392;28;20090;-61
2023/03/23 03:52:16;;;;;;;25.05;15.57;;;;;;;7.94;91.28;96375.16;5093067;28;20052;-61
2023/03/23 03:54:43;;;;;;;22.30;13.98;;;;;;;7.97;90.79;96374.22;5093577;28;20040;-61
2023/03/23 03:57:11;;;;;;;23.48;13.15;;;;;;;7.97;90.59;96375.09;5093228;28;20117;-61
2023/03/23 03:59:39;;;;;;;18.35;13.27;;;;;;;8.06;90.60;96378.28;5093266;28;20040;-61
2023/03/23 04:02:06;;;;;;;18.83;13.18;;;;;;;8.10;90.36;96377.31;5093236;28;20055;-61
2023/03/23 04:04:33;;;;;;;17.38;12.75;;;;;;;8.08;90.48;96379.13;5093147;28;20052;-61
2023/03/23 04:07:01;;;;;;;20.17;11.98;;;;;;;8.16;89.69;96377.09;5093318;28;20062;-61
2023/03/23 04:09:31;;;;;;;16.35;12.45;;;;;;;8.17;89.29;96377.97;5093175;28;20390;-61
2023/03/23 04:11:58;;;;;;;17.25;11.48;;;;;;;8.20;89.40;96376.13;5093298;28;20055;-62
2023/03/23 04:14:25;;;;;;;12.88;10.18;;;;;;;8.18;88.70;96374.47;5093176;28;20044;-61
2023/03/23 04:16:56;;;;;;;15.40;10.60;;;;;;;8.20;88.82;96383.94;5093058;28;20467;-61
2023/03/23 04:19:24;;;;;;;14.82;10.48;;;;;;;8.23;88.51;96377.78;5092997;28;20044;-61
2023/03/23 04:21:51;;;;;;;16.95;12.43;;;;;;;8.27;88.50;96383.75;5093014;28;20133;-61
2023/03/23 04:24:21;;;;;;;16.38;11.75;;;;;;;8.32;88.67;96380.13;5092833;28;20091;-61
2023/03/23 04:26:51;;;;;;;16.05;10.95;;;;;;;8.39;88.45;96387.72;5093122;28;20123;-61
2023/03/23 04:29:19;;;;;;;;;;;;;;;8.41;88.52;96386.78;5093345;28;20089;-61
2023/03/23 04:31:47;;;;;;;15.85;10.70;;;;;;;8.42;88.88;96385.00;5092899;28;19930;-61
2023/03/23 04:34:14;;;;;;;13.23;9.68;;;;;;;8.43;89.09;96390.19;5092771;28;20048;-61
2023/03/23 04:36:44;;;;;;;15.32;11.35;;;;;;;8.45;88.86;96396.22;5092974;28;20052;-61
2023/03/23 04:39:11;;;;;;;15.32;8.32;;;;;;;8.48;89.04;96392.63;5092952;28;20166;-61
2023/03/23 04:41:39;;;;;;;13.30;10.75;;;;;;;8.48;88.80;96400.47;5092895;28;20044;-61
2023/03/23 04:44:09;;;;;;;15.23;10.20;;;;;;;8.50;89.07;96405.63;5092791;28;20096;-62
2023/03/23 04:46:36;;;;;;;14.90;10.85;;;;;;;8.46;89.06;96404.88;5093137;28;20105;-62
2023/03/23 04:49:03;;;;;;;13.93;10.40;;;;;;;8.50;88.70;96400.41;5092889;28;20127;-61
2023/03/23 04:51:31;;;;;;;12.60;10.10;;;;;;;8.47;88.95;96417.88;5092532;28;20072;-61
2023/03/23 04:53:59;;;;;;;20.35;12.07;;;;;;;8.47;88.97;96417.00;5095597;28;20059;-62
2023/03/23 04:56:26;;;;;;;21.85;13.88;;;;;;;8.41;89.19;96419.81;5096561;28;20058;-61
2023/03/23 04:58:53;;;;;;;21.00;13.98;;;;;;;8.34;89.44;96412.19;5096570;28;20056;-62
2023/03/23 05:01:23;;;;;;;23.35;14.77;;;;;;;8.34;89.61;96419.16;5096415;28;20068;-61
2023/03/23 05:03:50;;;;;;;22.52;14.70;;;;;;;8.25;89.33;96412.44;5096273;28;20130;-61
2023/03/23 05:06:19;;;;;;;17.13;12.23;;;;;;;8.25;89.51;96416.84;5096464;28;20041;-61
2023/03/23 05:08:46;;;;;;;19.40;13.00;;;;;;;8.23;89.28;96422.09;5096149;28;20048;-61
2023/03/23 05:11:13;;;;;;;14.40;9.85;;;;;;;8.23;88.90;96427.31;5096293;28;20052;-62
2023/03/23 05:13:40;;;;;;;13.10;9.05;;;;;;;8.24;88.10;96422.94;5096247;28;20378;-61
2023/03/23 05:16:09;;;;;;;10.73;7.75;;;;;;;8.18;87.42;96421.34;5096301;28;20044;-61
2023/03/23 05:18:37;;;;;;;9.15;7.70;;;;;;;8.16;87.45;96423.19;5096128;28;20040;-62
2023/03/23 05:21:05;;;;;;;9.18;7.65;;;;;;;8.19;87.30;96430.91;5096301;28;20077;-62
2023/03/23 05:23:33;;;;;;;7.75;6.70;;;;;;;8.15;87.43;96427.53;5095912;28;20040;-61
2023/03/23 05:26:02;;;;;;;7.80;6.65;;;;;;;8.16;88.04;96431.81;5096017;28;20048;-62
2023/03/23 05:28:30;;;;;;;9.25;6.85;;;;;;;8.22;87.36;96433.41;5096012;28;20044;-61
2023/03/23 05:30:58;;;;;;;10.40;7.07;;;;;;;8.16;87.23;96434.44;5095880;28;20130;-61
2023/03/23 05:33:25;;;;;;;7.68;5.95;;;;;;;8.27;87.72;96433.25;5095899;28;20044;-62
2023/03/23 05:35:54;;;;;;;9.40;6.65;;;;;;;8.24;86.81;96436.81;5095869;28;20070;-62
2023/03/23 05:38:22;;;;;;;7.90;5.68;;;;;;;8.28;86.69;96438.41;5095733;28;20091;-62
2023/03/23 05:40:49;;;;;;;11.55;7.68;;;;;;;8.34;86.34;96429.59;5095595;28;20493;-61
2023/03/23 05:43:17;;;;;;;9.65;6.70;;;;;;;8.45;86.98;96439.66;5095568;28;20052;-61
2023/03/23 05:45:44;;;;;;;10.55;6.68;;;;;;;8.39;85.28;96448.53;5095478;28;20055;-61
2023/03/23 05:48:11;;;;;;;6.95;5.97;;;;;;;8.46;85.14;96441.38;5095596;28;20478;-61
2023/03/23 05:50:39;;;;;;;8.43;6.05;;;;;;;8.63;84.11;96447.84;5095538;28;20055;-62
2023/03/23 05:53:08;;;;;;;7.97;5.75;;;;;;;8.76;84.56;96445.72;5095504;28;20055;-62
2023/03/23 05:55:35;;;;;;;6.18;5.13;;;;;;;8.79;83.68;96451.66;5095481;28;20055;-62
2023/03/23 05:58:02;;;;;;;7.10;5.53;;;;;;;8.88;83.94;96460.09;5095213;28;20508;-62
2023/03/23 06:00:30;;;;;;;6.18;5.50;;;;;;;8.95;84.38;96457.25;5095556;28;20055;-62
2023/03/23 06:02:57;;;;;;;10.68;6.97;;;;;;;8.95;84.76;96456.38;5095275;28;20105;-62
2023/03/23 06:05:25;;;;;;;7.43;5.50;;;;;;;8.95;82.90;96464.22;5094379;28;20139;-61
2023/03/23 06:07:53;;;;;;;6.82;5.70;;;;;;;9.05;82.62;96469.97;5095218;28;20456;-61
2023/03/23 06:10:23;;;;;;;5.63;4.53;;;;;;;9.13;83.08;96467.13;5095239;28;20043;-61
2023/03/23 06:12:51;;;;;;;5.72;5.05;;;;;;;9.16;82.75;96470.50;5095201;28;20044;-61
2023/03/23 06:15:19;;;;;;;5.60;4.82;;;;;;;9.16;81.86;96460.06;5095246;28;20440;-62
2023/03/23 06:17:46;;;;;;;5.97;4.53;;;;;;;9.10;80.75;96463.69;5095203;28;20052;-62
2023/03/23 06:20:15;;;;;;;8.48;5.32;;;;;;;9.09;82.06;96456.78;5095093;28;20462;-62
2023/03/23 06:22:42;;;;;;;9.27;4.97;;;;;;;9.04;82.71;96471.75;5094889;28;20571;-61
2023/03/23 06:25:12;;;;;;;7.85;5.10;;;;;;;9.06;83.11;96467.31;5094695;28;20051;-61
2023/03/23 06:27:42;;;;;;;6.40;5.43;;;;;;;9.12;83.99;96476.69;5094884;28;20048;-61
2023/03/23 06:30:11;;;;;;;6.30;5.30;;;;;;;9.20;84.30;96466.00;5094730;28;20044;-61
2023/03/23 06:32:39;;;;;;;6.68;5.43;;;;;;;9.29;84.23;96467.44;5094658;28;20044;-61
2023/03/23 06:35:09;;;;;;;7.25;5.80;;;;;;;9.30;83.17;96477.84;5094660;28;20055;-61
2023/03/23 06:37:36;;;;;;;7.30;5.82;;;;;;;9.40;83.99;96475.78;5094634;28;20045;-61
2023/03/23 06:40:04;;;;;;;7.10;5.28;;;;;;;9.51;82.81;96467.56;5094621;28;20083;-61
2023/03/23 06:42:32;;;;;;;6.43;5.53;;;;;;;9.68;83.98;96481.78;5094577;28;20075;-61
2023/03/23 06:45:02;;;;;;;7.95;5.45;;;;;;;9.81;82.45;96480.44;5094391;28;20044;-61
2023/03/23 06:47:30;;;;;;;5.30;4.80;;;;;;;9.86;80.00;96494.22;5094444;28;20498;-61
2023/03/23 06:49:58;;;;;;;5.60;4.80;;;;;;;9.79;79.37;96491.84;5094259;28;20209;-61
2023/03/23 06:52:26;;;;;;;6.25;5.20;;;;;;;9.67;79.83;96507.06;5094144;28;20101;-62
2023/03/23 06:54:54;;;;;;;5.72;4.88;;;;;;;9.55;80.12;96497.03;5094211;28;20048;-61
2023/03/23 06:57:21;;;;;;;5.38;4.47;;;;;;;9.51;80.61;96498.06;5094268;28;20075;-61
2023/03/23 06:59:49;;;;;;;6.18;4.80;;;;;;;9.44;81.73;96503.47;5094335;28;20131;-60
2023/03/23 07:02:18;;;;;;;8.13;5.18;;;;;;;9.43;81.83;96506.16;5094445;28;20052;-61
2023/03/23 07:04:46;;;;;;;5.55;4.40;;;;;;;9.39;80.73;96505.38;5094173;28;20126;-61
2023/03/23 07:07:18;;;;;;;5.13;4.50;;;;;;;9.43;81.60;96506.16;5094141;28;20056;-61
2023/03/23 07:09:46;;;;;;;4.28;3.88;;;;;;;9.52;82.18;96507.59;5094110;28;20131;-61
2023/03/23 07:12:14;;;;;;;4.80;3.95;;;;;;;9.59;81.01;96512.56;5093774;28;20056;-60
2023/03/23 07:14:41;;;;;;;4.63;3.88;;;;;;;9.69;81.60;96505.25;5093915;28;20055;-62
2023/03/23 07:17:09;;;;;;;4.80;4.28;;;;;;;9.92;81.48;96507.94;5093777;28;20063;-62
2023/03/23 07:19:37;;;;;;;4.53;3.95;;;;;;;10.18;79.60;96508.75;5093889;28;20043;-61
2023/03/23 07:22:06;;;;;;;3.72;3.15;;;;;;;10.24;76.18;96509.38;5094159;28;20135;-60
2023/03/23 07:24:35;;;;;;;4.32;3.00;;;;;;;10.32;76.54;96518.69;5093732;28;20048;-61
2023/03/23 07:27:04;;;;;;;3.47;3.05;;;;;;;10.34;76.95;96520.34;5093849;28;20044;-61
2023/03/23 07:29:34;;;;;;;2.80;2.60;;;;;;;10.38;76.30;96522.88;5093610;28;20040;-61
2023/03/23 07:32:01;;;;;;;3.28;2.40;;;;;;;10.34;72.71;96519.50;5093884;28;20048;-61
2023/03/23 07:34:29;;;;;;;2.78;2.20;;;;;;;10.42;75.15;96524.44;5093944;28;20131;-61
2023/03/23 07:36:58;;;;;;;2.97;2.10;;;;;;;10.54;75.91;96524.00;5093652;28;20079;-61
2023/03/23 07:39:25;;;;;;;3.20;2.05;;;;;;;10.69;73.44;96532.19;5093522;28;20080;-61
2023/03/23 07:41:53;;;;;;;2.72;2.50;;;;;;;10.67;72.56;96531.38;5093651;28;20048;-61
2023/03/23 07:44:20;;;;;;;2.55;2.03;;;;;;;10.65;73.57;96535.84;5093436;28;20105;-61
2023/03/23 07:46:47;;;;;;;3.20;2.42;;;;;;;10.67;73.41;96537.47;5093376;28;20044;-60
2023/03/23 07:49:14;;;;;;;2.40;2.20;;;;;;;10.85;74.59;96530.69;5093291;28;20105;-61
2023/03/23 07:51:42;;;;;;;2.22;2.03;;;;;;;10.94;71.48;96536.44;5092985;28;20083;-61
2023/03/23 07:54:11;;;;;;;2.40;2.20;;;;;;;11.15;73.54;96526.88;5093196;28;20084;-60
2023/03/23 07:56:39;;;;;;;2.33;2.08;;;;;;;11.50;71.94;96529.81;5093226;28;20565;-61
2023/03/23 07:59:07;;;;;;;2.75;2.25;;;;;;;12.09;71.13;96529.09;5093238;28;20486;-61
2023/03/23 08:01:35;;;;;;;2.30;2.08;;;;;;;12.50;65.08;96535.19;5093241;28;20052;-61
2023/03/23 08:04:02;;;;;;;1.90;1.73;;;;;;;13.06;62.85;96540.44;5093405;28;20071;-61
2023/03/23 08:06:29;;;;;;;1.92;1.50;;;;;;;13.43;59.10;96537.81;5093179;28;20051;-61
2023/03/23 08:08:57;;;;;;;1.80;1.70;;;;;;;13.81;60.98;96538.63;5093086;28;20079;-61
2023/03/23 08:11:26;;;;;;;1.40;1.30;;;;;;;14.13;59.22;96542.22;5093227;28;20131;-61
2023/03/23 08:13:54;;;;;;;1.63;1.52;;;;;;;13.70;57.03;96544.41;5093188;28;20048;-61
2023/03/23 08:16:21;;;;;;;1.80;1.70;;;;;;;13.38;58.44;96547.69;5093758;28;20078;-61
2023/03/23 08:18:49;;;;;;;2.70;1.83;;;;;;;13.14;57.34;96548.81;5093155;28;20044;-61
2023/03/23 08:21:16;;;;;;;1.80;1.65;;;;;;;12.96;59.64;96547.91;5092977;28;20044;-61
2023/03/23 08:23:43;;;;;;;2.33;2.05;;;;;;;12.77;59.99;96545.31;5092979;28;20101;-61
2023/03/23 08:26:11;;;;;;;1.83;1.70;;;;;;;12.47;61.80;96538.81;5093206;28;20139;-60
2023/03/23 08:28:40;;;;;;;2.92;2.28;;;;;;;12.71;63.60;96537.72;5095370;28;20154;-61
2023/03/23 08:31:08;;;;;;;2.25;2.05;;;;;;;12.48;62.09;96542.25;5097068;28;20044;-61
2023/03/23 08:33:36;;;;;;;2.17;1.98;;;;;;;12.39;63.77;96535.66;5097138;28;20052;-61
2023/03/23 08:36:04;;;;;;;2.15;1.95;;;;;;;12.21;63.70;96542.59;5096874;28;20048;-61
2023/03/23 08:38:32;;;;;;;2.25;2.05;;;;;;;12.17;61.67;96551.50;5096940;28;20402;-61
2023/03/23 08:41:00;;;;;;;2.60;2.40;;;;;;;12.28;62.32;96543.16;5096914;28;20044;-61
2023/03/23 08:43:28;;;;;;;4.43;3.05;;;;;;;12.24;59.76;96539.81;5096920;28;20048;-62
2023/03/23 08:45:57;;;;;;;2.38;2.15;;;;;;;12.45;61.57;96538.00;5096972;28;20055;-62
2023/03/23 08:48:24;;;;;;;2.60;2.17;;;;;;;12.94;62.00;96544.50;5096659;28;20486;-61
2023/03/23 08:50:52;;;;;;;2.97;2.70;;;;;;;13.39;61.70;96552.88;5096418;28;20052;-61
2023/03/23 08:53:20;;;;;;;2.92;2.60;;;;;;;13.74;56.99;96553.84;5096777;28;20048;-62
2023/03/23 08:55:48;;;;;;;3.15;2.85;;;;;;;13.74;57.71;96553.84;5096702;28;20127;-61
2023/03/23 08:58:15;;;;;;;3.15;2.85;;;;;;;13.39;56.50;96558.13;5096497;28;20048;-61
2023/03/23 09:00:42;;;;;;;2.67;2.47;;;;;;;12.98;56.12;96560.97;5096538;28;20047;-61
2023/03/23 09:03:11;;;;;;;3.30;2.90;;;;;;;12.91;57.73;96557.78;5096806;28;20055;-61
2023/03/23 09:05:42;;;;;;;4.03;2.65;;;;;;;12.53;55.39;96569.16;5096260;28;20079;-61
2023/03/23 09:08:09;;;;;;;5.93;3.22;;;;;;;12.39;56.37;96577.63;5096321;28;20489;-62
2023/03/23 09:10:37;;;;;;;6.35;4.13;;;;;;;12.17;55.15;96570.72;5096314;28;20052;-61
2023/03/23 09:13:04;;;;;;;3.28;2.97;;;;;;;12.15;55.14;96576.94;5096345;28;20048;-61
2023/03/23 09:15:31;;;;;;;3.85;3.40;;;;;;;12.13;56.06;96567.38;5096275;28;20072;-61
2023/03/23 09:17:58;;;;;;;4.30;3.42;;;;;;;12.31;57.85;96572.72;5096420;28;20054;-61
2023/03/23 09:20:28;;;;;;;3.22;2.92;;;;;;;12.19;57.15;96571.50;5096043;28;20093;-62
2023/03/23 09:22:58;;;;;;;3.53;3.22;;;;;;;12.24;56.84;96577.41;5096058;28;20375;-61
2023/03/23 09:25:27;;;;;;;3.63;2.65;;;;;;;12.22;57.04;96573.97;5096090;28;20048;-61
2023/03/23 09:27:57;;;;;;;3.53;3.22;;;;;;;12.16;57.40;96563.75;5095938;28;20404;-61
2023/03/23 09:30:26;;;;;;;3.70;3.17;;;;;;;12.22;57.72;96573.16;5095918;28;20408;-61
2023/03/23 09:32:54;;;;;;;3.75;3.30;;;;;;;12.23;55.33;96580.09;5095817;28;20044;-61
2023/03/23 09:35:23;;;;;;;3.90;3.00;;;;;;;12.02;55.26;96574.84;5095753;28;20086;-61
2023/03/23 09:37:53;;;;;;;3.22;2.92;;;;;;;12.04;58.42;96569.53;5095890;28;20169;-61
2023/03/23 09:40:24;;;;;;;5.43;3.60;;;;;;;12.10;57.31;96578.00;5094430;28;20090;-61
2023/03/23 09:43:12;;;;;;;3.38;3.00;;;;;;;12.05;56.54;96579.09;5095689;28;20395;-61
2023/03/23 09:45:48;;;;;;;3.15;2.85;;;;;;;11.95;57.53;96576.03;5095464;28;20052;-60
2023/03/23 09:48:36;;;;;;;3.45;3.15;;;;;;;11.77;59.12;96569.78;5095571;28;20048;-61
2023/03/23 09:51:16;;;;;;;3.85;3.45;;;;;;;11.67;58.05;96577.16;5095325;28;20139;-61
2023/03/23 09:53:50;;;;;;;3.80;3.38;;;;;;;11.46;58.37;96569.28;5095556;28;20062;-61
2023/03/23 09:56:18;;;;;;;4.85;3.80;;;;;;;11.41;58.91;96577.31;5095429;28;20090;-60
2023/03/23 09:58:50;;;;;;;4.53;3.72;;;;;;;11.41;59.79;96576.50;5095309;28;20048;-60
2023/03/23 10:01:23;;;;;;;4.40;3.75;;;;;;;11.38;59.45;96575.69;5095529;28;20040;-61
2023/03/23 10:03:58;;;;;;;4.53;3.65;;;;;;;11.30;59.77;96584.78;5095279;28;20045;-61
2023/03/23 10:06:26;;;;;;;5.43;3.70;;;;;;;11.25;60.06;96572.72;5095339;28;20087;-61
2023/03/23 10:08:58;;;;;;;5.90;4.82;;;;;;;11.29;60.67;96581.31;5095232;28;20048;-61
2023/03/23 10:11:44;;;;;;;5.82;5.15;;;;;;;11.20;59.68;96577.28;5095427;28;20057;-61
2023/03/23 10:14:25;;;;;;;6.13;5.35;;;;;;;10.95;60.27;96574.78;5095042;28;20490;-61
2023/03/23 10:17:00;;;;;;;8.63;5.97;;;;;;;10.86;60.83;96581.22;5094975;28;20040;-61
2023/03/23 10:19:35;;;;;;;8.82;5.65;;;;;;;10.89;61.36;96573.25;5095135;28;20070;-61
2023/03/23 10:22:07;;;;;;;9.57;5.72;;;;;;;10.86;59.44;96573.38;5095037;28;20375;-61
2023/03/23 10:24:44;;;;;;;6.57;5.47;;;;;;;10.97;61.47;96579.06;5095103;28;20394;-61
2023/03/23 10:27:23;;;;;;;6.47;5.32;;;;;;;11.02;60.36;96584.13;5094909;28;20048;-61
2023/03/23 10:29:55;;;;;;;9.70;5.80;;;;;;;11.06;60.79;96577.84;5094772;28;20048;-61
2023/03/23 10:32:37;;;;;;;6.22;5.00;;;;;;;11.18;60.63;96584.38;5094677;28;20123;-61
2023/03/23 10:35:08;;;;;;;7.13;5.78;;;;;;;11.23;60.23;96586.81;5094759;28;20048;-61
2023/03/23 10:37:40;;;;;;;8.40;5.25;;;;;;;11.27;60.66;96575.28;5094558;28;20515;-60
2023/03/23 10:40:23;;;;;;;6.53;5.70;;;;;;;11.30;58.70;96584.78;5094570;28;20048;-61
2023/03/23 10:42:52;;;;;;;7.25;6.25;;;;;;;11.22;58.64;96579.84;5094446;28;20052;-61
2023/03/23 10:45:22;;;;;;;8.80;6.40;;;;;;;11.27;59.91;96572.66;5094416;28;20083;-61
2023/03/23 10:47:54;;;;;;;6.93;6.15;;;;;;;11.29;58.90;96577.84;5094500;28;20058;-61
2023/03/23 10:50:27;;;;;;;8.20;6.40;;;;;;;11.25;59.17;96583.22;5094074;28;20048;-61
2023/03/23 10:52:57;;;;;;;8.15;6.50;;;;;;;11.27;58.71;96577.03;5094613;28;20048;-61
2023/03/23 10:55:38;;;;;;;10.20;7.15;;;;;;;11.25;58.70;96574.50;5094275;28;20044;-60
2023/03/23 10:58:10;;;;;;;8.25;5.13;;;;;;;11.31;58.22;96565.53;5094286;28;20044;-61
2023/03/23 11:00:44;;;;;;;10.23;6.43;;;;;;;11.43;58.00;96566.78;5094303;28;20055;-61
2023/03/23 11:03:42;;;;;;;11.88;6.00;;;;;;;11.62;57.25;96562.50;5094252;28;20048;-61
2023/03/23 11:06:11;;;;;;;8.32;6.95;;;;;;;11.79;56.45;96571.41;5094338;28;20143;-61
2023/03/23 11:08:49;;;;;;;10.77;6.70;;;;;;;11.79;56.73;96558.31;5094190;28;20040;-60
2023/03/23 11:11:21;;;;;;;9.55;6.57;;;;;;;11.77;57.56;96569.78;5093908;28;20468;-60
2023/03/23 11:13:51;;;;;;;9.50;6.25;;;;;;;11.93;56.94;96551.63;5093969;28;20532;-61
2023/03/23 11:16:26;;;;;;;11.43;6.88;;;;;;;12.23;56.59;96549.47;5093970;28;20050;-62
2023/03/23 11:18:53;;;;;;;8.32;6.35;;;;;;;12.52;56.63;96546.44;5093781;28;20486;-61
2023/03/23 11:21:22;;;;;;;7.30;5.60;;;;;;;12.67;54.05;96544.03;5093872;28;20131;-60
2023/03/23 11:23:53;;;;;;;7.72;5.70;;;;;;;12.65;54.38;96538.88;5093803;28;20048;-61
2023/03/23 11:26:26;;;;;;;8.18;4.93;;;;;;;12.68;54.80;96545.75;5093703;28;20398;-61
2023/03/23 11:28:58;;;;;;;6.97;6.05;;;;;;;12.63;53.31;96544.19;5093589;28;20055;-61
2023/03/23 11:31:29;;;;;;;9.18;5.95;;;;;;;12.75;55.48;96537.50;5093751;28;20040;-61
2023/03/23 11:34:01;;;;;;;8.77;5.70;;;;;;;12.91;53.72;96538.56;5093587;28;20048;-61
2023/03/23 11:36:36;;;;;;;7.80;6.20;;;;;;;12.82;52.68;96538.06;5093488;28;20044;-61
2023/03/23 11:39:20;;;;;;;7.47;5.80;;;;;;;13.02;53.49;96533.66;5093519;28;20135;-61
2023/03/23 11:41:49;;;;;;;8.57;5.72;;;;;;;13.09;55.16;96534.19;5093541;28;20088;-61
2023/03/23 11:44:24;;;;;;;7.75;5.72;;;;;;;13.23;53.54;96531.75;5093478;28;20127;-61
2023/03/23 11:47:02;;;;;;;9.75;5.47;;;;;;;13.38;53.20;96529.28;5093208;28;20084;-61